sensor_id;sensor_type;location;lat;lon;timestamp;temperature;humidity
4759;DHT22;2393;50.560;12.636;2022-09-09T00:00:20;13.70;99.90
4759;DHT22;2393;50.560;12.636;2022-09-09T00:02:56;13.60;99.90
4759;DHT22;2393;50.560;12.636;2022-09-09T00:05:32;13.60;99.90
4759;DHT22;2393;50.560;12.636;2022-09-09T00:08:14;13.60;99.90
4759;DHT22;2393;50.560;12.636;2022-09-09T00:10:52;13.60;99.90
4759;DHT22;2393;50.560;12.636;2022-09-09T00:13:25;13.60;99.90
4759;DHT22;2393;50.560;12.636;2022-09-09T00:16:00;13.60;99.90
4759;DHT22;2393;50.560;12.636;2022-09-09T00:18:37;13.60;99.90
4759;DHT22;2393;50.560;12.636;2022-09-09T00:21:13;13.60;99.90
4759;DHT22;2393;50.560;12.636;2022-09-09T00:23:49;13.50;99.90
4759;DHT22;2393;50.560;12.636;2022-09-09T00:26:22;13.50;99.90
4759;DHT22;2393;50.560;12.636;2022-09-09T00:29:03;13.50;99.90
4759;DHT22;2393;50.560;12.636;2022-09-09T00:31:32;13.50;99.90
4759;DHT22;2393;50.560;12.636;2022-09-09T00:34:07;13.50;99.90
4759;DHT22;2393;50.560;12.636;2022-09-09T00:36:38;13.50;99.90
4759;DHT22;2393;50.560;12.636;2022-09-09T00:39:15;13.50;99.90
4759;DHT22;2393;50.560;12.636;2022-09-09T00:41:55;13.50;99.90
4759;DHT22;2393;50.560;12.636;2022-09-09T00:44:31;13.50;99.90
4759;DHT22;2393;50.560;12.636;2022-09-09T00:47:10;13.50;99.90
4759;DHT22;2393;50.560;12.636;2022-09-09T00:49:50;13.50;99.90
4759;DHT22;2393;50.560;12.636;2022-09-09T00:52:36;13.50;99.90
4759;DHT22;2393;50.560;12.636;2022-09-09T00:55:16;13.50;99.90
4759;DHT22;2393;50.560;12.636;2022-09-09T00:57:50;13.50;99.90
4759;DHT22;2393;50.560;12.636;2022-09-09T01:00:22;13.40;99.90
4759;DHT22;2393;50.560;12.636;2022-09-09T01:03:02;13.40;99.90
4759;DHT22;2393;50.560;12.636;2022-09-09T01:05:41;13.40;99.90
4759;DHT22;2393;50.560;12.636;2022-09-09T01:08:26;13.40;99.90
4759;DHT22;2393;50.560;12.636;2022-09-09T01:10:58;13.40;99.90
4759;DHT22;2393;50.560;12.636;2022-09-09T01:13:30;13.40;99.90
4759;DHT22;2393;50.560;12.636;2022-09-09T01:16:08;13.40;99.90
4759;DHT22;2393;50.560;12.636;2022-09-09T01:18:43;13.40;99.90
4759;DHT22;2393;50.560;12.636;2022-09-09T01:21:19;13.40;99.90
4759;DHT22;2393;50.560;12.636;2022-09-09T01:24:05;13.40;99.90
4759;DHT22;2393;50.560;12.636;2022-09-09T01:27:02;13.40;99.90
4759;DHT22;2393;50.560;12.636;2022-09-09T01:29:32;13.40;99.90
4759;DHT22;2393;50.560;12.636;2022-09-09T01:32:02;13.50;99.90
4759;DHT22;2393;50.560;12.636;2022-09-09T01:34:51;13.40;99.90
4759;DHT22;2393;50.560;12.636;2022-09-09T01:37:21;13.50;99.90
4759;DHT22;2393;50.560;12.636;2022-09-09T01:39:49;13.50;99.90
4759;DHT22;2393;50.560;12.636;2022-09-09T01:42:17;13.50;99.90
4759;DHT22;2393;50.560;12.636;2022-09-09T01:45:01;13.50;99.90
4759;DHT22;2393;50.560;12.636;2022-09-09T01:48:44;13.50;99.90
4759;DHT22;2393;50.560;12.636;2022-09-09T01:52:58;13.50;99.90
4759;DHT22;2393;50.560;12.636;2022-09-09T02:32:31;13.40;99.90
4759;DHT22;2393;50.560;12.636;2022-09-09T02:35:11;13.30;99.90
4759;DHT22;2393;50.560;12.636;2022-09-09T02:37:44;13.30;99.90
4759;DHT22;2393;50.560;12.636;2022-09-09T02:40:16;13.30;99.90
4759;DHT22;2393;50.560;12.636;2022-09-09T02:42:51;13.30;99.90
4759;DHT22;2393;50.560;12.636;2022-09-09T02:45:36;13.30;99.90
4759;DHT22;2393;50.560;12.636;2022-09-09T02:48:21;13.30;99.90
4759;DHT22;2393;50.560;12.636;2022-09-09T02:51:18;13.30;99.90
4759;DHT22;2393;50.560;12.636;2022-09-09T02:53:57;13.30;99.90
4759;DHT22;2393;50.560;12.636;2022-09-09T02:56:51;13.20;99.90
4759;DHT22;2393;50.560;12.636;2022-09-09T02:59:45;13.20;99.90
4759;DHT22;2393;50.560;12.636;2022-09-09T03:03:04;13.30;99.90
4759;DHT22;2393;50.560;12.636;2022-09-09T03:06:25;13.30;99.90
4759;DHT22;2393;50.560;12.636;2022-09-09T03:09:39;13.30;99.90
4759;DHT22;2393;50.560;12.636;2022-09-09T03:12:15;13.30;99.90
4759;DHT22;2393;50.560;12.636;2022-09-09T03:15:20;13.30;99.90
4759;DHT22;2393;50.560;12.636;2022-09-09T03:18:03;13.30;99.90
4759;DHT22;2393;50.560;12.636;2022-09-09T03:20:45;13.20;99.90
4759;DHT22;2393;50.560;12.636;2022-09-09T03:23:30;13.20;99.90
4759;DHT22;2393;50.560;12.636;2022-09-09T03:26:04;13.30;99.90
4759;DHT22;2393;50.560;12.636;2022-09-09T03:28:51;13.20;99.90
4759;DHT22;2393;50.560;12.636;2022-09-09T03:31:23;13.30;99.90
4759;DHT22;2393;50.560;12.636;2022-09-09T03:33:55;13.30;99.90
4759;DHT22;2393;50.560;12.636;2022-09-09T03:36:26;13.40;99.90
4759;DHT22;2393;50.560;12.636;2022-09-09T03:38:56;13.40;99.90
4759;DHT22;2393;50.560;12.636;2022-09-09T03:41:26;13.40;99.90
4759;DHT22;2393;50.560;12.636;2022-09-09T03:43:56;13.40;99.90
4759;DHT22;2393;50.560;12.636;2022-09-09T03:46:26;13.40;99.90
4759;DHT22;2393;50.560;12.636;2022-09-09T03:48:54;13.40;99.90
4759;DHT22;2393;50.560;12.636;2022-09-09T03:51:23;13.40;99.90
4759;DHT22;2393;50.560;12.636;2022-09-09T03:53:53;13.50;99.90
4759;DHT22;2393;50.560;12.636;2022-09-09T03:56:27;13.50;99.90
4759;DHT22;2393;50.560;12.636;2022-09-09T03:58:58;13.50;99.90
4759;DHT22;2393;50.560;12.636;2022-09-09T04:01:31;13.50;99.90
4759;DHT22;2393;50.560;12.636;2022-09-09T04:04:02;13.50;99.90
4759;DHT22;2393;50.560;12.636;2022-09-09T04:06:30;13.50;99.90
4759;DHT22;2393;50.560;12.636;2022-09-09T04:08:58;13.50;99.90
4759;DHT22;2393;50.560;12.636;2022-09-09T04:11:32;13.50;99.90
4759;DHT22;2393;50.560;12.636;2022-09-09T04:14:01;13.50;99.90
4759;DHT22;2393;50.560;12.636;2022-09-09T04:16:31;13.50;99.90
4759;DHT22;2393;50.560;12.636;2022-09-09T04:19:02;13.50;99.90
4759;DHT22;2393;50.560;12.636;2022-09-09T04:21:45;13.50;99.90
4759;DHT22;2393;50.560;12.636;2022-09-09T04:27:38;13.40;99.90
4759;DHT22;2393;50.560;12.636;2022-09-09T04:30:29;13.40;99.90
4759;DHT22;2393;50.560;12.636;2022-09-09T04:33:18;13.40;99.90
4759;DHT22;2393;50.560;12.636;2022-09-09T04:36:07;13.30;99.90
4759;DHT22;2393;50.560;12.636;2022-09-09T04:38:42;13.30;99.90
4759;DHT22;2393;50.560;12.636;2022-09-09T04:41:15;13.30;99.90
4759;DHT22;2393;50.560;12.636;2022-09-09T04:53:03;13.20;99.90
4759;DHT22;2393;50.560;12.636;2022-09-09T04:57:36;13.20;99.90
4759;DHT22;2393;50.560;12.636;2022-09-09T05:11:57;13.20;99.90
4759;DHT22;2393;50.560;12.636;2022-09-09T05:15:16;13.20;99.90
4759;DHT22;2393;50.560;12.636;2022-09-09T05:21:58;13.20;99.90
4759;DHT22;2393;50.560;12.636;2022-09-09T05:25:08;13.30;99.90
4759;DHT22;2393;50.560;12.636;2022-09-09T05:28:14;13.30;99.90
4759;DHT22;2393;50.560;12.636;2022-09-09T05:31:10;13.40;99.90
4759;DHT22;2393;50.560;12.636;2022-09-09T05:33:48;13.50;99.90
4759;DHT22;2393;50.560;12.636;2022-09-09T05:36:27;13.50;99.90
4759;DHT22;2393;50.560;12.636;2022-09-09T05:39:19;13.60;99.90
4759;DHT22;2393;50.560;12.636;2022-09-09T05:42:15;13.70;99.90
4759;DHT22;2393;50.560;12.636;2022-09-09T05:46:30;13.70;99.90
4759;DHT22;2393;50.560;12.636;2022-09-09T05:50:06;13.80;99.90
4759;DHT22;2393;50.560;12.636;2022-09-09T05:55:49;14.00;99.90
4759;DHT22;2393;50.560;12.636;2022-09-09T05:58:37;14.00;99.90
4759;DHT22;2393;50.560;12.636;2022-09-09T06:01:21;14.10;99.90
4759;DHT22;2393;50.560;12.636;2022-09-09T06:03:57;14.30;99.90
4759;DHT22;2393;50.560;12.636;2022-09-09T06:06:37;14.30;99.90
4759;DHT22;2393;50.560;12.636;2022-09-09T06:09:31;14.50;99.90
4759;DHT22;2393;50.560;12.636;2022-09-09T06:12:27;14.70;99.90
4759;DHT22;2393;50.560;12.636;2022-09-09T06:14:56;14.90;99.90
4759;DHT22;2393;50.560;12.636;2022-09-09T06:17:53;15.10;99.90
4759;DHT22;2393;50.560;12.636;2022-09-09T06:20:39;15.20;99.90
4759;DHT22;2393;50.560;12.636;2022-09-09T06:23:40;15.40;99.90
4759;DHT22;2393;50.560;12.636;2022-09-09T06:26:23;15.50;99.90
4759;DHT22;2393;50.560;12.636;2022-09-09T06:29:22;15.60;99.90
4759;DHT22;2393;50.560;12.636;2022-09-09T06:32:10;15.80;99.90
4759;DHT22;2393;50.560;12.636;2022-09-09T06:34:45;15.90;99.90
4759;DHT22;2393;50.560;12.636;2022-09-09T06:37:57;16.00;99.90
4759;DHT22;2393;50.560;12.636;2022-09-09T06:40:52;16.20;99.90
4759;DHT22;2393;50.560;12.636;2022-09-09T06:43:36;16.30;99.90
4759;DHT22;2393;50.560;12.636;2022-09-09T06:47:20;16.50;99.90
4759;DHT22;2393;50.560;12.636;2022-09-09T06:49:41;16.80;99.90
4759;DHT22;2393;50.560;12.636;2022-09-09T06:52:14;17.00;99.90
4759;DHT22;2393;50.560;12.636;2022-09-09T06:54:59;17.20;99.90
4759;DHT22;2393;50.560;12.636;2022-09-09T06:57:59;17.30;99.90
4759;DHT22;2393;50.560;12.636;2022-09-09T07:00:39;17.40;99.90
4759;DHT22;2393;50.560;12.636;2022-09-09T07:03:17;17.50;99.90
4759;DHT22;2393;50.560;12.636;2022-09-09T07:05:56;17.50;99.90
4759;DHT22;2393;50.560;12.636;2022-09-09T07:08:51;17.50;99.90
4759;DHT22;2393;50.560;12.636;2022-09-09T07:15:13;17.50;99.90
4759;DHT22;2393;50.560;12.636;2022-09-09T07:18:09;17.50;99.90
4759;DHT22;2393;50.560;12.636;2022-09-09T07:20:53;17.50;99.90
4759;DHT22;2393;50.560;12.636;2022-09-09T07:23:30;17.60;99.90
4759;DHT22;2393;50.560;12.636;2022-09-09T07:26:06;17.40;99.90
4759;DHT22;2393;50.560;12.636;2022-09-09T07:28:35;17.40;99.90
4759;DHT22;2393;50.560;12.636;2022-09-09T07:31:05;17.50;99.90
4759;DHT22;2393;50.560;12.636;2022-09-09T07:33:35;17.70;99.90
4759;DHT22;2393;50.560;12.636;2022-09-09T07:36:07;17.80;99.90
4759;DHT22;2393;50.560;12.636;2022-09-09T07:38:39;18.00;99.90
4759;DHT22;2393;50.560;12.636;2022-09-09T07:41:09;18.20;99.90
4759;DHT22;2393;50.560;12.636;2022-09-09T07:43:38;18.30;99.90
4759;DHT22;2393;50.560;12.636;2022-09-09T07:46:09;18.30;99.90
4759;DHT22;2393;50.560;12.636;2022-09-09T07:48:44;18.40;99.90
4759;DHT22;2393;50.560;12.636;2022-09-09T07:51:14;18.50;99.90
4759;DHT22;2393;50.560;12.636;2022-09-09T07:53:45;18.60;99.90
4759;DHT22;2393;50.560;12.636;2022-09-09T07:56:16;18.60;99.90
4759;DHT22;2393;50.560;12.636;2022-09-09T07:58:45;18.70;99.90
4759;DHT22;2393;50.560;12.636;2022-09-09T08:01:17;18.70;99.90
4759;DHT22;2393;50.560;12.636;2022-09-09T08:03:46;18.80;99.90
4759;DHT22;2393;50.560;12.636;2022-09-09T08:06:24;19.00;99.90
4759;DHT22;2393;50.560;12.636;2022-09-09T08:08:57;19.20;99.90
4759;DHT22;2393;50.560;12.636;2022-09-09T08:11:29;19.10;99.90
4759;DHT22;2393;50.560;12.636;2022-09-09T08:14:19;19.30;99.90
4759;DHT22;2393;50.560;12.636;2022-09-09T08:16:52;19.30;99.90
4759;DHT22;2393;50.560;12.636;2022-09-09T08:19:28;19.40;99.90
4759;DHT22;2393;50.560;12.636;2022-09-09T08:22:01;19.70;99.90
4759;DHT22;2393;50.560;12.636;2022-09-09T08:24:32;20.30;99.90
4759;DHT22;2393;50.560;12.636;2022-09-09T08:27:04;20.70;99.90
4759;DHT22;2393;50.560;12.636;2022-09-09T08:29:33;21.10;99.90
4759;DHT22;2393;50.560;12.636;2022-09-09T08:32:03;21.50;99.90
4759;DHT22;2393;50.560;12.636;2022-09-09T08:34:33;22.10;99.90
4759;DHT22;2393;50.560;12.636;2022-09-09T08:37:06;22.50;99.90
4759;DHT22;2393;50.560;12.636;2022-09-09T08:39:38;23.00;99.90
4759;DHT22;2393;50.560;12.636;2022-09-09T08:42:31;23.50;99.90
4759;DHT22;2393;50.560;12.636;2022-09-09T08:45:12;24.00;99.90
4759;DHT22;2393;50.560;12.636;2022-09-09T08:47:53;24.20;99.90
4759;DHT22;2393;50.560;12.636;2022-09-09T08:50:26;24.30;99.90
4759;DHT22;2393;50.560;12.636;2022-09-09T08:53:04;24.00;99.90
4759;DHT22;2393;50.560;12.636;2022-09-09T08:55:39;23.70;99.90
4759;DHT22;2393;50.560;12.636;2022-09-09T08:58:13;23.20;99.90
4759;DHT22;2393;50.560;12.636;2022-09-09T09:00:57;22.70;99.90
4759;DHT22;2393;50.560;12.636;2022-09-09T09:03:37;22.10;99.90
4759;DHT22;2393;50.560;12.636;2022-09-09T09:06:13;21.60;99.90
4759;DHT22;2393;50.560;12.636;2022-09-09T09:08:46;21.20;99.90
4759;DHT22;2393;50.560;12.636;2022-09-09T09:11:18;20.80;99.90
4759;DHT22;2393;50.560;12.636;2022-09-09T09:13:50;20.60;99.90
4759;DHT22;2393;50.560;12.636;2022-09-09T09:16:25;20.40;99.90
4759;DHT22;2393;50.560;12.636;2022-09-09T09:18:56;20.40;99.90
4759;DHT22;2393;50.560;12.636;2022-09-09T09:21:36;20.20;99.90
4759;DHT22;2393;50.560;12.636;2022-09-09T09:24:15;20.10;99.90
4759;DHT22;2393;50.560;12.636;2022-09-09T09:26:48;20.10;99.90
4759;DHT22;2393;50.560;12.636;2022-09-09T09:29:19;20.40;99.90
4759;DHT22;2393;50.560;12.636;2022-09-09T09:31:52;20.90;99.90
4759;DHT22;2393;50.560;12.636;2022-09-09T09:34:24;21.00;99.90
4759;DHT22;2393;50.560;12.636;2022-09-09T09:36:56;21.30;99.90
4759;DHT22;2393;50.560;12.636;2022-09-09T09:39:29;21.80;99.90
4759;DHT22;2393;50.560;12.636;2022-09-09T09:42:17;22.30;99.90
4759;DHT22;2393;50.560;12.636;2022-09-09T09:44:56;22.80;99.90
4759;DHT22;2393;50.560;12.636;2022-09-09T09:47:40;23.20;99.90
4759;DHT22;2393;50.560;12.636;2022-09-09T09:50:23;23.40;99.90
4759;DHT22;2393;50.560;12.636;2022-09-09T09:52:56;23.20;99.90
4759;DHT22;2393;50.560;12.636;2022-09-09T09:55:31;23.50;99.90
4759;DHT22;2393;50.560;12.636;2022-09-09T09:58:06;23.80;99.90
4759;DHT22;2393;50.560;12.636;2022-09-09T10:00:55;24.10;99.90
4759;DHT22;2393;50.560;12.636;2022-09-09T10:03:35;24.50;99.90
4759;DHT22;2393;50.560;12.636;2022-09-09T10:06:29;24.60;99.90
4759;DHT22;2393;50.560;12.636;2022-09-09T10:09:22;24.60;99.90
4759;DHT22;2393;50.560;12.636;2022-09-09T10:12:03;24.50;99.90
4759;DHT22;2393;50.560;12.636;2022-09-09T10:14:44;24.50;99.90
4759;DHT22;2393;50.560;12.636;2022-09-09T10:17:30;24.70;99.90
4759;DHT22;2393;50.560;12.636;2022-09-09T10:20:24;24.70;99.90
4759;DHT22;2393;50.560;12.636;2022-09-09T10:23:12;24.70;99.90
4759;DHT22;2393;50.560;12.636;2022-09-09T10:26:08;24.60;99.90
4759;DHT22;2393;50.560;12.636;2022-09-09T10:29:15;24.60;99.90
4759;DHT22;2393;50.560;12.636;2022-09-09T10:31:59;24.30;99.90
4759;DHT22;2393;50.560;12.636;2022-09-09T10:34:53;24.00;99.90
4759;DHT22;2393;50.560;12.636;2022-09-09T10:37:44;24.00;99.90
4759;DHT22;2393;50.560;12.636;2022-09-09T10:40:32;24.00;99.90
4759;DHT22;2393;50.560;12.636;2022-09-09T10:43:15;24.00;99.90
4759;DHT22;2393;50.560;12.636;2022-09-09T10:46:01;23.80;99.90
4759;DHT22;2393;50.560;12.636;2022-09-09T10:48:56;23.50;99.90
4759;DHT22;2393;50.560;12.636;2022-09-09T10:51:43;23.50;99.90
4759;DHT22;2393;50.560;12.636;2022-09-09T10:54:33;23.60;99.90
4759;DHT22;2393;50.560;12.636;2022-09-09T10:57:16;23.70;99.90
4759;DHT22;2393;50.560;12.636;2022-09-09T10:59:52;23.90;99.90
4759;DHT22;2393;50.560;12.636;2022-09-09T11:02:31;24.00;99.90
4759;DHT22;2393;50.560;12.636;2022-09-09T11:05:05;24.40;99.90
4759;DHT22;2393;50.560;12.636;2022-09-09T11:07:49;24.40;99.90
4759;DHT22;2393;50.560;12.636;2022-09-09T11:10:25;24.80;99.90
4759;DHT22;2393;50.560;12.636;2022-09-09T11:13:05;25.30;99.90
4759;DHT22;2393;50.560;12.636;2022-09-09T11:15:44;25.30;99.90
4759;DHT22;2393;50.560;12.636;2022-09-09T11:18:19;25.20;99.90
4759;DHT22;2393;50.560;12.636;2022-09-09T11:20:56;25.50;99.90
4759;DHT22;2393;50.560;12.636;2022-09-09T11:23:34;25.50;99.90
4759;DHT22;2393;50.560;12.636;2022-09-09T11:26:17;25.70;99.90
4759;DHT22;2393;50.560;12.636;2022-09-09T11:29:04;25.60;99.90
4759;DHT22;2393;50.560;12.636;2022-09-09T11:31:44;25.10;99.90
4759;DHT22;2393;50.560;12.636;2022-09-09T11:34:37;24.70;99.90
4759;DHT22;2393;50.560;12.636;2022-09-09T11:37:40;24.50;99.90
4759;DHT22;2393;50.560;12.636;2022-09-09T11:40:19;24.00;99.90
4759;DHT22;2393;50.560;12.636;2022-09-09T11:43:02;23.70;99.90
4759;DHT22;2393;50.560;12.636;2022-09-09T11:45:39;23.40;99.90
4759;DHT22;2393;50.560;12.636;2022-09-09T11:48:25;23.60;99.90
4759;DHT22;2393;50.560;12.636;2022-09-09T11:51:00;23.90;99.90
4759;DHT22;2393;50.560;12.636;2022-09-09T11:53:36;24.10;99.90
4759;DHT22;2393;50.560;12.636;2022-09-09T11:56:29;24.40;99.90
4759;DHT22;2393;50.560;12.636;2022-09-09T11:59:03;24.80;99.90
4759;DHT22;2393;50.560;12.636;2022-09-09T12:01:39;24.80;99.90
4759;DHT22;2393;50.560;12.636;2022-09-09T12:04:30;24.80;99.90
4759;DHT22;2393;50.560;12.636;2022-09-09T12:07:26;24.90;99.90
4759;DHT22;2393;50.560;12.636;2022-09-09T12:10:02;24.90;99.90
4759;DHT22;2393;50.560;12.636;2022-09-09T12:12:38;25.20;99.90
4759;DHT22;2393;50.560;12.636;2022-09-09T12:15:25;25.20;99.90
4759;DHT22;2393;50.560;12.636;2022-09-09T12:18:00;25.40;99.90
4759;DHT22;2393;50.560;12.636;2022-09-09T12:20:36;25.40;99.90
4759;DHT22;2393;50.560;12.636;2022-09-09T12:23:25;25.50;99.90
4759;DHT22;2393;50.560;12.636;2022-09-09T12:26:13;25.60;99.90
4759;DHT22;2393;50.560;12.636;2022-09-09T12:28:57;25.40;99.90
4759;DHT22;2393;50.560;12.636;2022-09-09T12:31:35;25.20;99.90
4759;DHT22;2393;50.560;12.636;2022-09-09T12:34:17;24.90;99.90
4759;DHT22;2393;50.560;12.636;2022-09-09T12:36:55;24.60;99.90
4759;DHT22;2393;50.560;12.636;2022-09-09T12:39:33;24.40;99.90
4759;DHT22;2393;50.560;12.636;2022-09-09T12:42:18;24.20;99.90
4759;DHT22;2393;50.560;12.636;2022-09-09T12:44:55;24.00;99.90
4759;DHT22;2393;50.560;12.636;2022-09-09T12:47:38;23.80;99.90
4759;DHT22;2393;50.560;12.636;2022-09-09T12:50:20;23.50;99.90
4759;DHT22;2393;50.560;12.636;2022-09-09T12:52:55;23.40;99.90
4759;DHT22;2393;50.560;12.636;2022-09-09T12:55:30;23.10;99.90
4759;DHT22;2393;50.560;12.636;2022-09-09T12:58:03;23.00;99.90
4759;DHT22;2393;50.560;12.636;2022-09-09T13:00:36;22.80;99.90
4759;DHT22;2393;50.560;12.636;2022-09-09T13:03:17;22.60;99.90
4759;DHT22;2393;50.560;12.636;2022-09-09T13:05:53;22.40;99.90
4759;DHT22;2393;50.560;12.636;2022-09-09T13:08:29;22.20;99.90
4759;DHT22;2393;50.560;12.636;2022-09-09T13:11:09;22.00;99.90
4759;DHT22;2393;50.560;12.636;2022-09-09T13:13:42;21.70;99.90
4759;DHT22;2393;50.560;12.636;2022-09-09T13:16:23;21.30;99.90
4759;DHT22;2393;50.560;12.636;2022-09-09T13:19:14;21.00;99.90
4759;DHT22;2393;50.560;12.636;2022-09-09T13:21:55;20.70;99.90
4759;DHT22;2393;50.560;12.636;2022-09-09T13:24:30;20.30;99.90
4759;DHT22;2393;50.560;12.636;2022-09-09T13:27:04;20.30;99.90
4759;DHT22;2393;50.560;12.636;2022-09-09T13:29:37;20.20;99.90
4759;DHT22;2393;50.560;12.636;2022-09-09T13:32:16;20.10;99.90
4759;DHT22;2393;50.560;12.636;2022-09-09T13:34:55;19.80;99.90
4759;DHT22;2393;50.560;12.636;2022-09-09T13:37:34;19.60;99.90
4759;DHT22;2393;50.560;12.636;2022-09-09T13:40:14;19.40;99.90
4759;DHT22;2393;50.560;12.636;2022-09-09T13:42:53;19.20;99.90
4759;DHT22;2393;50.560;12.636;2022-09-09T13:45:31;18.90;99.90
4759;DHT22;2393;50.560;12.636;2022-09-09T13:48:09;18.90;99.90
4759;DHT22;2393;50.560;12.636;2022-09-09T13:51:01;18.70;99.90
4759;DHT22;2393;50.560;12.636;2022-09-09T13:53:35;18.60;99.90
4759;DHT22;2393;50.560;12.636;2022-09-09T13:56:08;18.70;99.90
4759;DHT22;2393;50.560;12.636;2022-09-09T13:58:43;18.90;99.90
4759;DHT22;2393;50.560;12.636;2022-09-09T14:01:18;19.00;99.90
4759;DHT22;2393;50.560;12.636;2022-09-09T14:03:57;19.20;99.90
4759;DHT22;2393;50.560;12.636;2022-09-09T14:06:29;19.60;99.90
4759;DHT22;2393;50.560;12.636;2022-09-09T14:09:05;20.00;99.90
4759;DHT22;2393;50.560;12.636;2022-09-09T14:11:38;20.00;99.90
4759;DHT22;2393;50.560;12.636;2022-09-09T14:14:12;19.90;99.90
4759;DHT22;2393;50.560;12.636;2022-09-09T14:16:51;19.90;99.90
4759;DHT22;2393;50.560;12.636;2022-09-09T14:19:22;19.90;99.90
4759;DHT22;2393;50.560;12.636;2022-09-09T14:21:53;19.90;99.90
4759;DHT22;2393;50.560;12.636;2022-09-09T14:24:32;19.90;99.90
4759;DHT22;2393;50.560;12.636;2022-09-09T14:27:04;19.90;99.90
4759;DHT22;2393;50.560;12.636;2022-09-09T14:29:36;19.90;99.90
4759;DHT22;2393;50.560;12.636;2022-09-09T14:32:09;19.90;99.90
4759;DHT22;2393;50.560;12.636;2022-09-09T14:34:40;20.00;99.90
4759;DHT22;2393;50.560;12.636;2022-09-09T14:37:16;20.00;99.90
4759;DHT22;2393;50.560;12.636;2022-09-09T14:39:57;19.90;99.90
4759;DHT22;2393;50.560;12.636;2022-09-09T14:42:29;20.00;99.90
4759;DHT22;2393;50.560;12.636;2022-09-09T14:45:01;20.00;99.90
4759;DHT22;2393;50.560;12.636;2022-09-09T14:47:34;20.00;99.90
4759;DHT22;2393;50.560;12.636;2022-09-09T14:50:06;19.90;99.90
4759;DHT22;2393;50.560;12.636;2022-09-09T14:52:38;19.90;99.90
4759;DHT22;2393;50.560;12.636;2022-09-09T14:55:12;19.90;99.90
4759;DHT22;2393;50.560;12.636;2022-09-09T14:57:48;19.80;99.90
4759;DHT22;2393;50.560;12.636;2022-09-09T15:00:19;19.70;99.90
4759;DHT22;2393;50.560;12.636;2022-09-09T15:02:52;19.70;99.90
4759;DHT22;2393;50.560;12.636;2022-09-09T15:05:29;19.60;99.90
4759;DHT22;2393;50.560;12.636;2022-09-09T15:08:09;19.60;99.90
4759;DHT22;2393;50.560;12.636;2022-09-09T15:10:44;19.50;99.90
4759;DHT22;2393;50.560;12.636;2022-09-09T15:13:19;19.40;99.90
4759;DHT22;2393;50.560;12.636;2022-09-09T15:15:54;19.30;99.90
4759;DHT22;2393;50.560;12.636;2022-09-09T15:18:33;19.20;99.90
4759;DHT22;2393;50.560;12.636;2022-09-09T15:21:05;19.00;99.90
4759;DHT22;2393;50.560;12.636;2022-09-09T15:23:42;19.00;99.90
4759;DHT22;2393;50.560;12.636;2022-09-09T15:26:20;18.90;99.90
4759;DHT22;2393;50.560;12.636;2022-09-09T15:29:01;18.70;99.90
4759;DHT22;2393;50.560;12.636;2022-09-09T15:31:39;18.70;99.90
4759;DHT22;2393;50.560;12.636;2022-09-09T15:34:11;18.70;99.90
4759;DHT22;2393;50.560;12.636;2022-09-09T15:36:47;18.60;99.90
4759;DHT22;2393;50.560;12.636;2022-09-09T15:39:18;18.60;99.90
4759;DHT22;2393;50.560;12.636;2022-09-09T15:41:55;18.60;99.90
4759;DHT22;2393;50.560;12.636;2022-09-09T15:44:29;18.50;99.90
4759;DHT22;2393;50.560;12.636;2022-09-09T15:47:11;18.40;99.90
4759;DHT22;2393;50.560;12.636;2022-09-09T15:49:45;18.50;99.90
4759;DHT22;2393;50.560;12.636;2022-09-09T15:52:23;18.40;99.90
4759;DHT22;2393;50.560;12.636;2022-09-09T15:54:56;18.40;99.90
4759;DHT22;2393;50.560;12.636;2022-09-09T15:57:30;18.40;99.90
4759;DHT22;2393;50.560;12.636;2022-09-09T16:00:01;18.30;99.90
4759;DHT22;2393;50.560;12.636;2022-09-09T16:02:33;18.30;99.90
4759;DHT22;2393;50.560;12.636;2022-09-09T16:05:06;18.30;99.90
4759;DHT22;2393;50.560;12.636;2022-09-09T16:07:37;18.30;99.90
4759;DHT22;2393;50.560;12.636;2022-09-09T16:10:12;18.20;99.90
4759;DHT22;2393;50.560;12.636;2022-09-09T16:12:54;18.10;99.90
4759;DHT22;2393;50.560;12.636;2022-09-09T16:15:27;18.00;99.90
4759;DHT22;2393;50.560;12.636;2022-09-09T16:18:01;17.90;99.90
4759;DHT22;2393;50.560;12.636;2022-09-09T16:20:33;17.70;99.90
4759;DHT22;2393;50.560;12.636;2022-09-09T16:23:05;17.60;99.90
4759;DHT22;2393;50.560;12.636;2022-09-09T16:25:37;17.50;99.90
4759;DHT22;2393;50.560;12.636;2022-09-09T16:28:12;17.40;99.90
4759;DHT22;2393;50.560;12.636;2022-09-09T16:30:48;17.30;99.90
4759;DHT22;2393;50.560;12.636;2022-09-09T16:33:24;17.30;99.90
4759;DHT22;2393;50.560;12.636;2022-09-09T16:36:06;17.20;99.90
4759;DHT22;2393;50.560;12.636;2022-09-09T16:38:51;17.10;99.90
4759;DHT22;2393;50.560;12.636;2022-09-09T16:41:26;17.10;99.90
4759;DHT22;2393;50.560;12.636;2022-09-09T16:44:02;17.20;99.90
4759;DHT22;2393;50.560;12.636;2022-09-09T16:46:39;17.10;99.90
4759;DHT22;2393;50.560;12.636;2022-09-09T16:49:13;17.10;99.90
4759;DHT22;2393;50.560;12.636;2022-09-09T16:51:51;17.00;99.90
4759;DHT22;2393;50.560;12.636;2022-09-09T16:54:31;17.10;99.90
4759;DHT22;2393;50.560;12.636;2022-09-09T16:57:07;17.10;99.90
4759;DHT22;2393;50.560;12.636;2022-09-09T16:59:43;17.20;99.90
4759;DHT22;2393;50.560;12.636;2022-09-09T17:02:21;17.20;99.90
4759;DHT22;2393;50.560;12.636;2022-09-09T17:04:56;17.30;99.90
4759;DHT22;2393;50.560;12.636;2022-09-09T17:07:39;17.30;99.90
4759;DHT22;2393;50.560;12.636;2022-09-09T17:10:14;17.20;99.90
4759;DHT22;2393;50.560;12.636;2022-09-09T17:12:52;17.20;99.90
4759;DHT22;2393;50.560;12.636;2022-09-09T17:15:25;17.20;99.90
4759;DHT22;2393;50.560;12.636;2022-09-09T17:17:56;17.30;99.90
4759;DHT22;2393;50.560;12.636;2022-09-09T17:20:28;17.40;99.90
4759;DHT22;2393;50.560;12.636;2022-09-09T17:23:17;17.40;99.90
4759;DHT22;2393;50.560;12.636;2022-09-09T17:25:56;17.40;99.90
4759;DHT22;2393;50.560;12.636;2022-09-09T17:28:32;17.50;99.90
4759;DHT22;2393;50.560;12.636;2022-09-09T17:31:10;17.40;99.90
4759;DHT22;2393;50.560;12.636;2022-09-09T17:33:49;17.40;99.90
4759;DHT22;2393;50.560;12.636;2022-09-09T17:36:22;17.40;99.90
4759;DHT22;2393;50.560;12.636;2022-09-09T17:38:58;17.40;99.90
4759;DHT22;2393;50.560;12.636;2022-09-09T17:41:30;17.40;99.90
4759;DHT22;2393;50.560;12.636;2022-09-09T17:44:02;17.30;99.90
4759;DHT22;2393;50.560;12.636;2022-09-09T17:46:43;17.20;99.90
4759;DHT22;2393;50.560;12.636;2022-09-09T17:49:19;17.20;99.90
4759;DHT22;2393;50.560;12.636;2022-09-09T17:51:51;17.10;99.90
4759;DHT22;2393;50.560;12.636;2022-09-09T17:54:25;17.00;99.90
4759;DHT22;2393;50.560;12.636;2022-09-09T17:57:05;17.00;99.90
4759;DHT22;2393;50.560;12.636;2022-09-09T17:59:39;16.90;99.90
4759;DHT22;2393;50.560;12.636;2022-09-09T18:02:21;16.70;99.90
4759;DHT22;2393;50.560;12.636;2022-09-09T18:04:58;16.60;99.90
4759;DHT22;2393;50.560;12.636;2022-09-09T18:07:34;16.60;99.90
4759;DHT22;2393;50.560;12.636;2022-09-09T18:10:31;16.50;99.90
4759;DHT22;2393;50.560;12.636;2022-09-09T18:13:06;16.30;99.90
4759;DHT22;2393;50.560;12.636;2022-09-09T18:15:52;16.20;99.90
4759;DHT22;2393;50.560;12.636;2022-09-09T18:18:26;16.20;99.90